sensor_id;sensor_type;location;lat;lon;timestamp;P1;durP1;ratioP1;P2;durP2;ratioP2
11427;SDS011;5770;44.504;11.346;2023-04-16T00:01:18;4.80;;;3.45;;
11427;SDS011;5770;44.504;11.346;2023-04-16T00:03:45;6.63;;;3.47;;
11427;SDS011;5770;44.504;11.346;2023-04-16T00:06:13;8.35;;;3.40;;
11427;SDS011;5770;44.504;11.346;2023-04-16T00:08:40;6.40;;;3.50;;
11427;SDS011;5770;44.504;11.346;2023-04-16T00:11:10;8.07;;;3.50;;
11427;SDS011;5770;44.504;11.346;2023-04-16T00:13:39;5.60;;;3.45;;
11427;SDS011;5770;44.504;11.346;2023-04-16T00:16:06;7.22;;;3.50;;
11427;SDS011;5770;44.504;11.346;2023-04-16T00:18:33;8.23;;;4.00;;
11427;SDS011;5770;44.504;11.346;2023-04-16T00:21:01;11.18;;;3.95;;
11427;SDS011;5770;44.504;11.346;2023-04-16T00:23:28;6.97;;;3.47;;
11427;SDS011;5770;44.504;11.346;2023-04-16T00:25:55;6.35;;;3.65;;
11427;SDS011;5770;44.504;11.346;2023-04-16T00:28:24;8.13;;;4.00;;
11427;SDS011;5770;44.504;11.346;2023-04-16T00:30:52;7.35;;;4.15;;
11427;SDS011;5770;44.504;11.346;2023-04-16T00:33:20;5.45;;;4.00;;
11427;SDS011;5770;44.504;11.346;2023-04-16T00:35:47;10.70;;;4.07;;
11427;SDS011;5770;44.504;11.346;2023-04-16T00:38:14;6.57;;;3.78;;
11427;SDS011;5770;44.504;11.346;2023-04-16T00:40:42;6.90;;;3.80;;
11427;SDS011;5770;44.504;11.346;2023-04-16T00:43:09;6.32;;;3.80;;
11427;SDS011;5770;44.504;11.346;2023-04-16T00:45:36;5.47;;;3.55;;
11427;SDS011;5770;44.504;11.346;2023-04-16T00:48:05;5.20;;;3.47;;
11427;SDS011;5770;44.504;11.346;2023-04-16T00:50:33;9.75;;;3.70;;
11427;SDS011;5770;44.504;11.346;2023-04-16T00:53:00;7.50;;;4.00;;
11427;SDS011;5770;44.504;11.346;2023-04-16T00:55:28;7.20;;;3.38;;
11427;SDS011;5770;44.504;11.346;2023-04-16T00:57:55;7.45;;;3.58;;
11427;SDS011;5770;44.504;11.346;2023-04-16T01:00:22;6.68;;;3.88;;
11427;SDS011;5770;44.504;11.346;2023-04-16T01:02:50;6.03;;;3.80;;
11427;SDS011;5770;44.504;11.346;2023-04-16T01:05:19;5.47;;;3.95;;
11427;SDS011;5770;44.504;11.346;2023-04-16T01:07:46;6.43;;;3.63;;
11427;SDS011;5770;44.504;11.346;2023-04-16T01:10:13;5.22;;;3.85;;
11427;SDS011;5770;44.504;11.346;2023-04-16T01:12:41;4.88;;;3.50;;
11427;SDS011;5770;44.504;11.346;2023-04-16T01:15:08;3.95;;;3.42;;
11427;SDS011;5770;44.504;11.346;2023-04-16T01:17:35;8.35;;;3.60;;
11427;SDS011;5770;44.504;11.346;2023-04-16T01:20:03;8.18;;;4.05;;
11427;SDS011;5770;44.504;11.346;2023-04-16T01:22:32;8.38;;;3.65;;
11427;SDS011;5770;44.504;11.346;2023-04-16T01:24:59;3.83;;;3.30;;
11427;SDS011;5770;44.504;11.346;2023-04-16T01:27:27;6.65;;;3.25;;
11427;SDS011;5770;44.504;11.346;2023-04-16T01:29:55;6.18;;;3.60;;
11427;SDS011;5770;44.504;11.346;2023-04-16T01:32:22;8.00;;;4.05;;
11427;SDS011;5770;44.504;11.346;2023-04-16T01:34:49;6.18;;;3.72;;
11427;SDS011;5770;44.504;11.346;2023-04-16T01:37:16;4.47;;;3.55;;
11427;SDS011;5770;44.504;11.346;2023-04-16T01:39:45;5.38;;;3.70;;
11427;SDS011;5770;44.504;11.346;2023-04-16T01:42:12;5.60;;;3.83;;
11427;SDS011;5770;44.504;11.346;2023-04-16T01:44:40;8.05;;;4.03;;
11427;SDS011;5770;44.504;11.346;2023-04-16T01:47:07;6.45;;;3.90;;
11427;SDS011;5770;44.504;11.346;2023-04-16T01:49:34;7.18;;;3.70;;
11427;SDS011;5770;44.504;11.346;2023-04-16T01:52:02;6.78;;;3.70;;
11427;SDS011;5770;44.504;11.346;2023-04-16T01:54:32;6.95;;;3.90;;
11427;SDS011;5770;44.504;11.346;2023-04-16T01:57:01;5.60;;;3.63;;
11427;SDS011;5770;44.504;11.346;2023-04-16T01:59:31;5.93;;;3.83;;
11427;SDS011;5770;44.504;11.346;2023-04-16T02:01:58;5.63;;;3.35;;
11427;SDS011;5770;44.504;11.346;2023-04-16T02:04:29;8.18;;;4.35;;
11427;SDS011;5770;44.504;11.346;2023-04-16T02:06:57;6.13;;;4.00;;
11427;SDS011;5770;44.504;11.346;2023-04-16T02:09:27;7.20;;;3.92;;
11427;SDS011;5770;44.504;11.346;2023-04-16T02:11:55;7.75;;;3.75;;
11427;SDS011;5770;44.504;11.346;2023-04-16T02:14:23;7.93;;;4.25;;
11427;SDS011;5770;44.504;11.346;2023-04-16T02:16:51;8.02;;;3.88;;
11427;SDS011;5770;44.504;11.346;2023-04-16T02:19:18;5.93;;;3.75;;
11427;SDS011;5770;44.504;11.346;2023-04-16T02:21:46;11.32;;;4.40;;
11427;SDS011;5770;44.504;11.346;2023-04-16T02:24:13;7.25;;;4.15;;
11427;SDS011;5770;44.504;11.346;2023-04-16T02:26:40;7.25;;;4.10;;
11427;SDS011;5770;44.504;11.346;2023-04-16T02:29:07;6.95;;;3.88;;
11427;SDS011;5770;44.504;11.346;2023-04-16T02:31:37;6.53;;;4.13;;
11427;SDS011;5770;44.504;11.346;2023-04-16T02:34:05;8.93;;;3.92;;
11427;SDS011;5770;44.504;11.346;2023-04-16T02:36:32;6.60;;;4.40;;
11427;SDS011;5770;44.504;11.346;2023-04-16T02:39:00;5.88;;;4.00;;
11427;SDS011;5770;44.504;11.346;2023-04-16T02:41:27;4.25;;;3.85;;
11427;SDS011;5770;44.504;11.346;2023-04-16T02:43:54;5.55;;;3.80;;
11427;SDS011;5770;44.504;11.346;2023-04-16T02:46:22;6.85;;;4.43;;
11427;SDS011;5770;44.504;11.346;2023-04-16T02:48:50;6.05;;;4.15;;
11427;SDS011;5770;44.504;11.346;2023-04-16T02:51:17;7.05;;;4.22;;
11427;SDS011;5770;44.504;11.346;2023-04-16T02:53:48;6.55;;;3.88;;
11427;SDS011;5770;44.504;11.346;2023-04-16T02:56:15;6.70;;;3.63;;
11427;SDS011;5770;44.504;11.346;2023-04-16T02:58:44;6.97;;;4.35;;
11427;SDS011;5770;44.504;11.346;2023-04-16T03:01:12;5.25;;;3.97;;
11427;SDS011;5770;44.504;11.346;2023-04-16T03:03:39;6.28;;;3.80;;
11427;SDS011;5770;44.504;11.346;2023-04-16T03:06:07;6.88;;;4.18;;
11427;SDS011;5770;44.504;11.346;2023-04-16T03:08:34;7.00;;;4.00;;
11427;SDS011;5770;44.504;11.346;2023-04-16T03:11:02;6.78;;;4.00;;
11427;SDS011;5770;44.504;11.346;2023-04-16T03:13:29;6.53;;;3.88;;
11427;SDS011;5770;44.504;11.346;2023-04-16T03:15:56;5.55;;;4.30;;
11427;SDS011;5770;44.504;11.346;2023-04-16T03:18:23;6.47;;;4.40;;
11427;SDS011;5770;44.504;11.346;2023-04-16T03:20:51;7.18;;;4.13;;
11427;SDS011;5770;44.504;11.346;2023-04-16T03:23:20;5.18;;;3.95;;
11427;SDS011;5770;44.504;11.346;2023-04-16T03:25:47;7.68;;;4.30;;
11427;SDS011;5770;44.504;11.346;2023-04-16T03:28:14;9.60;;;4.28;;
11427;SDS011;5770;44.504;11.346;2023-04-16T03:30:42;5.28;;;4.43;;
11427;SDS011;5770;44.504;11.346;2023-04-16T03:33:08;7.03;;;4.38;;
11427;SDS011;5770;44.504;11.346;2023-04-16T03:35:36;7.25;;;4.65;;
11427;SDS011;5770;44.504;11.346;2023-04-16T03:38:03;6.80;;;4.53;;
11427;SDS011;5770;44.504;11.346;2023-04-16T03:40:31;5.53;;;4.30;;
11427;SDS011;5770;44.504;11.346;2023-04-16T03:42:59;8.48;;;4.35;;
11427;SDS011;5770;44.504;11.346;2023-04-16T03:45:27;6.07;;;4.18;;
11427;SDS011;5770;44.504;11.346;2023-04-16T03:47:54;4.68;;;3.88;;
11427;SDS011;5770;44.504;11.346;2023-04-16T03:50:22;7.10;;;4.25;;
11427;SDS011;5770;44.504;11.346;2023-04-16T03:52:51;7.22;;;4.30;;
11427;SDS011;5770;44.504;11.346;2023-04-16T03:55:18;7.55;;;4.75;;
11427;SDS011;5770;44.504;11.346;2023-04-16T03:57:47;4.82;;;4.15;;
11427;SDS011;5770;44.504;11.346;2023-04-16T04:00:14;6.32;;;4.75;;
11427;SDS011;5770;44.504;11.346;2023-04-16T04:02:41;8.50;;;4.13;;
11427;SDS011;5770;44.504;11.346;2023-04-16T04:05:09;5.68;;;4.47;;
11427;SDS011;5770;44.504;11.346;2023-04-16T04:07:36;6.50;;;4.57;;
11427;SDS011;5770;44.504;11.346;2023-04-16T04:10:03;5.47;;;4.40;;
11427;SDS011;5770;44.504;11.346;2023-04-16T04:12:30;6.63;;;4.30;;
11427;SDS011;5770;44.504;11.346;2023-04-16T04:14:59;10.07;;;4.45;;
11427;SDS011;5770;44.504;11.346;2023-04-16T04:17:26;5.90;;;4.18;;
11427;SDS011;5770;44.504;11.346;2023-04-16T04:19:53;7.32;;;4.60;;
11427;SDS011;5770;44.504;11.346;2023-04-16T04:22:21;4.78;;;4.28;;
11427;SDS011;5770;44.504;11.346;2023-04-16T04:24:48;5.88;;;4.55;;
11427;SDS011;5770;44.504;11.346;2023-04-16T04:27:15;7.22;;;4.57;;
11427;SDS011;5770;44.504;11.346;2023-04-16T04:29:43;7.47;;;4.53;;
11427;SDS011;5770;44.504;11.346;2023-04-16T04:32:11;6.85;;;4.55;;
11427;SDS011;5770;44.504;11.346;2023-04-16T04:34:39;10.60;;;5.20;;
11427;SDS011;5770;44.504;11.346;2023-04-16T04:37:06;6.45;;;4.93;;
11427;SDS011;5770;44.504;11.346;2023-04-16T04:39:33;8.88;;;4.70;;
11427;SDS011;5770;44.504;11.346;2023-04-16T04:42:00;7.95;;;4.72;;
11427;SDS011;5770;44.504;11.346;2023-04-16T04:44:28;7.40;;;4.97;;
11427;SDS011;5770;44.504;11.346;2023-04-16T04:46:55;7.90;;;4.78;;
11427;SDS011;5770;44.504;11.346;2023-04-16T04:49:24;4.88;;;4.47;;
11427;SDS011;5770;44.504;11.346;2023-04-16T04:51:51;5.93;;;4.80;;
11427;SDS011;5770;44.504;11.346;2023-04-16T04:54:18;6.13;;;4.72;;
11427;SDS011;5770;44.504;11.346;2023-04-16T04:56:46;6.03;;;4.45;;
11427;SDS011;5770;44.504;11.346;2023-04-16T04:59:13;8.60;;;4.88;;
11427;SDS011;5770;44.504;11.346;2023-04-16T05:01:40;5.07;;;4.53;;
11427;SDS011;5770;44.504;11.346;2023-04-16T05:04:07;8.35;;;5.22;;
11427;SDS011;5770;44.504;11.346;2023-04-16T05:06:36;5.18;;;4.65;;
11427;SDS011;5770;44.504;11.346;2023-04-16T05:09:03;7.93;;;4.63;;
11427;SDS011;5770;44.504;11.346;2023-04-16T05:11:32;5.93;;;4.78;;
11427;SDS011;5770;44.504;11.346;2023-04-16T05:13:59;6.43;;;4.55;;
11427;SDS011;5770;44.504;11.346;2023-04-16T05:16:27;6.30;;;4.60;;
11427;SDS011;5770;44.504;11.346;2023-04-16T05:18:54;6.03;;;4.88;;
11427;SDS011;5770;44.504;11.346;2023-04-16T05:21:22;6.45;;;4.78;;
11427;SDS011;5770;44.504;11.346;2023-04-16T05:23:51;5.25;;;4.45;;
11427;SDS011;5770;44.504;11.346;2023-04-16T05:26:18;7.13;;;4.55;;
11427;SDS011;5770;44.504;11.346;2023-04-16T05:28:46;6.80;;;4.47;;
11427;SDS011;5770;44.504;11.346;2023-04-16T05:31:14;6.68;;;4.40;;
11427;SDS011;5770;44.504;11.346;2023-04-16T05:33:41;5.60;;;4.70;;
11427;SDS011;5770;44.504;11.346;2023-04-16T05:36:08;6.28;;;4.57;;
11427;SDS011;5770;44.504;11.346;2023-04-16T05:38:35;9.68;;;5.28;;
11427;SDS011;5770;44.504;11.346;2023-04-16T05:41:04;6.43;;;4.70;;
11427;SDS011;5770;44.504;11.346;2023-04-16T05:43:31;8.32;;;4.82;;
11427;SDS011;5770;44.504;11.346;2023-04-16T05:46:01;8.27;;;4.78;;
11427;SDS011;5770;44.504;11.346;2023-04-16T05:48:31;7.10;;;4.43;;
11427;SDS011;5770;44.504;11.346;2023-04-16T05:50:58;8.13;;;4.57;;
11427;SDS011;5770;44.504;11.346;2023-04-16T05:53:26;6.57;;;4.15;;
11427;SDS011;5770;44.504;11.346;2023-04-16T05:55:53;5.93;;;4.05;;
11427;SDS011;5770;44.504;11.346;2023-04-16T05:58:22;6.43;;;4.32;;
11427;SDS011;5770;44.504;11.346;2023-04-16T06:00:49;7.43;;;4.22;;
11427;SDS011;5770;44.504;11.346;2023-04-16T06:03:17;5.72;;;3.90;;
11427;SDS011;5770;44.504;11.346;2023-04-16T06:05:44;8.77;;;4.47;;
11427;SDS011;5770;44.504;11.346;2023-04-16T06:08:11;5.53;;;4.03;;
11427;SDS011;5770;44.504;11.346;2023-04-16T06:10:38;4.10;;;3.70;;
11427;SDS011;5770;44.504;11.346;2023-04-16T06:13:06;5.45;;;3.90;;
11427;SDS011;5770;44.504;11.346;2023-04-16T06:15:34;6.72;;;3.58;;
11427;SDS011;5770;44.504;11.346;2023-04-16T06:18:02;5.75;;;4.18;;
11427;SDS011;5770;44.504;11.346;2023-04-16T06:20:29;5.65;;;3.78;;
11427;SDS011;5770;44.504;11.346;2023-04-16T06:22:56;5.53;;;3.60;;
11427;SDS011;5770;44.504;11.346;2023-04-16T06:25:24;6.70;;;3.45;;
11427;SDS011;5770;44.504;11.346;2023-04-16T06:27:51;5.00;;;3.97;;
11427;SDS011;5770;44.504;11.346;2023-04-16T06:30:18;4.95;;;3.47;;
11427;SDS011;5770;44.504;11.346;2023-04-16T06:32:48;6.10;;;3.70;;
11427;SDS011;5770;44.504;11.346;2023-04-16T06:35:15;5.75;;;3.75;;
11427;SDS011;5770;44.504;11.346;2023-04-16T06:37:44;6.35;;;3.88;;
11427;SDS011;5770;44.504;11.346;2023-04-16T06:40:11;5.43;;;3.35;;
11427;SDS011;5770;44.504;11.346;2023-04-16T06:42:38;5.55;;;3.25;;
11427;SDS011;5770;44.504;11.346;2023-04-16T06:45:06;3.97;;;2.88;;
11427;SDS011;5770;44.504;11.346;2023-04-16T06:47:34;4.00;;;2.65;;
11427;SDS011;5770;44.504;11.346;2023-04-16T06:50:03;2.97;;;2.55;;
11427;SDS011;5770;44.504;11.346;2023-04-16T06:52:30;3.70;;;2.42;;
11427;SDS011;5770;44.504;11.346;2023-04-16T06:54:57;4.47;;;2.55;;
11427;SDS011;5770;44.504;11.346;2023-04-16T06:57:24;5.10;;;3.45;;
11427;SDS011;5770;44.504;11.346;2023-04-16T06:59:51;5.43;;;3.03;;
11427;SDS011;5770;44.504;11.346;2023-04-16T07:02:19;8.63;;;3.20;;
11427;SDS011;5770;44.504;11.346;2023-04-16T07:04:46;4.75;;;3.22;;
11427;SDS011;5770;44.504;11.346;2023-04-16T07:07:15;6.45;;;3.03;;
11427;SDS011;5770;44.504;11.346;2023-04-16T07:09:42;3.30;;;2.63;;
11427;SDS011;5770;44.504;11.346;2023-04-16T07:12:09;4.78;;;3.10;;
11427;SDS011;5770;44.504;11.346;2023-04-16T07:14:37;4.40;;;3.10;;
11427;SDS011;5770;44.504;11.346;2023-04-16T07:17:04;4.60;;;2.60;;
11427;SDS011;5770;44.504;11.346;2023-04-16T07:19:33;5.03;;;2.95;;
11427;SDS011;5770;44.504;11.346;2023-04-16T07:22:01;3.85;;;2.53;;
11427;SDS011;5770;44.504;11.346;2023-04-16T07:24:30;3.42;;;2.42;;
11427;SDS011;5770;44.504;11.346;2023-04-16T07:26:57;4.07;;;2.60;;
11427;SDS011;5770;44.504;11.346;2023-04-16T07:29:24;4.68;;;2.42;;
11427;SDS011;5770;44.504;11.346;2023-04-16T07:31:51;4.65;;;2.70;;
11427;SDS011;5770;44.504;11.346;2023-04-16T07:34:19;3.22;;;2.13;;
11427;SDS011;5770;44.504;11.346;2023-04-16T07:36:46;3.85;;;2.00;;
11427;SDS011;5770;44.504;11.346;2023-04-16T07:39:13;4.53;;;2.28;;
11427;SDS011;5770;44.504;11.346;2023-04-16T07:41:42;3.58;;;2.30;;
11427;SDS011;5770;44.504;11.346;2023-04-16T07:44:09;2.60;;;2.15;;
11427;SDS011;5770;44.504;11.346;2023-04-16T07:46:36;3.78;;;2.28;;
11427;SDS011;5770;44.504;11.346;2023-04-16T07:49:03;4.75;;;2.40;;
11427;SDS011;5770;44.504;11.346;2023-04-16T07:51:31;6.75;;;2.75;;
11427;SDS011;5770;44.504;11.346;2023-04-16T07:53:58;3.70;;;2.20;;
11427;SDS011;5770;44.504;11.346;2023-04-16T07:56:26;7.07;;;2.22;;
11427;SDS011;5770;44.504;11.346;2023-04-16T07:58:54;2.78;;;1.83;;
11427;SDS011;5770;44.504;11.346;2023-04-16T08:01:24;3.47;;;1.90;;
11427;SDS011;5770;44.504;11.346;2023-04-16T08:03:51;2.30;;;1.63;;
11427;SDS011;5770;44.504;11.346;2023-04-16T08:06:19;7.03;;;2.47;;
11427;SDS011;5770;44.504;11.346;2023-04-16T08:08:46;2.28;;;1.70;;
11427;SDS011;5770;44.504;11.346;2023-04-16T08:11:13;1.95;;;1.75;;
11427;SDS011;5770;44.504;11.346;2023-04-16T08:13:41;2.90;;;1.83;;
11427;SDS011;5770;44.504;11.346;2023-04-16T08:16:09;6.78;;;2.50;;
11427;SDS011;5770;44.504;11.346;2023-04-16T08:18:36;5.68;;;2.55;;
11427;SDS011;5770;44.504;11.346;2023-04-16T08:21:04;2.75;;;2.00;;
11427;SDS011;5770;44.504;11.346;2023-04-16T08:23:34;3.03;;;2.30;;
11427;SDS011;5770;44.504;11.346;2023-04-16T08:26:01;4.15;;;2.30;;
11427;SDS011;5770;44.504;11.346;2023-04-16T08:28:28;3.45;;;2.80;;
11427;SDS011;5770;44.504;11.346;2023-04-16T08:30:55;3.35;;;2.25;;
11427;SDS011;5770;44.504;11.346;2023-04-16T08:33:24;2.70;;;2.03;;
11427;SDS011;5770;44.504;11.346;2023-04-16T08:35:54;3.75;;;2.28;;
11427;SDS011;5770;44.504;11.346;2023-04-16T08:38:21;2.65;;;2.25;;
11427;SDS011;5770;44.504;11.346;2023-04-16T08:40:49;2.85;;;2.42;;
11427;SDS011;5770;44.504;11.346;2023-04-16T08:43:16;6.35;;;2.58;;
11427;SDS011;5770;44.504;11.346;2023-04-16T08:45:44;5.80;;;1.90;;
11427;SDS011;5770;44.504;11.346;2023-04-16T08:48:13;5.60;;;2.25;;
11427;SDS011;5770;44.504;11.346;2023-04-16T08:50:42;2.72;;;2.20;;
11427;SDS011;5770;44.504;11.346;2023-04-16T08:53:10;2.40;;;2.05;;
11427;SDS011;5770;44.504;11.346;2023-04-16T08:55:45;3.08;;;1.90;;
11427;SDS011;5770;44.504;11.346;2023-04-16T08:58:14;4.78;;;1.92;;
11427;SDS011;5770;44.504;11.346;2023-04-16T09:00:41;2.47;;;1.83;;
11427;SDS011;5770;44.504;11.346;2023-04-16T09:03:10;3.83;;;2.10;;
11427;SDS011;5770;44.504;11.346;2023-04-16T09:05:39;3.88;;;2.38;;
11427;SDS011;5770;44.504;11.346;2023-04-16T09:08:12;5.00;;;2.95;;
11427;SDS011;5770;44.504;11.346;2023-04-16T09:10:39;3.33;;;1.88;;
11427;SDS011;5770;44.504;11.346;2023-04-16T09:13:06;2.40;;;2.20;;
11427;SDS011;5770;44.504;11.346;2023-04-16T09:15:35;3.28;;;2.90;;
11427;SDS011;5770;44.504;11.346;2023-04-16T09:18:03;2.08;;;1.85;;
11427;SDS011;5770;44.504;11.346;2023-04-16T09:20:30;2.63;;;2.00;;
11427;SDS011;5770;44.504;11.346;2023-04-16T09:22:58;1.98;;;1.77;;
11427;SDS011;5770;44.504;11.346;2023-04-16T09:25:25;2.88;;;1.98;;
11427;SDS011;5770;44.504;11.346;2023-04-16T09:27:54;2.13;;;1.95;;
11427;SDS011;5770;44.504;11.346;2023-04-16T09:30:21;2.47;;;2.00;;
11427;SDS011;5770;44.504;11.346;2023-04-16T09:32:49;3.35;;;2.20;;
11427;SDS011;5770;44.504;11.346;2023-04-16T09:35:17;2.20;;;1.70;;
11427;SDS011;5770;44.504;11.346;2023-04-16T09:37:53;4.20;;;2.47;;
11427;SDS011;5770;44.504;11.346;2023-04-16T09:40:24;1.95;;;1.75;;
11427;SDS011;5770;44.504;11.346;2023-04-16T09:42:55;2.33;;;2.05;;
11427;SDS011;5770;44.504;11.346;2023-04-16T09:45:24;2.47;;;1.95;;
11427;SDS011;5770;44.504;11.346;2023-04-16T09:47:51;1.92;;;1.73;;
11427;SDS011;5770;44.504;11.346;2023-04-16T09:50:19;1.80;;;1.58;;
11427;SDS011;5770;44.504;11.346;2023-04-16T09:52:47;2.67;;;1.70;;
11427;SDS011;5770;44.504;11.346;2023-04-16T09:55:15;4.18;;;2.72;;
11427;SDS011;5770;44.504;11.346;2023-04-16T09:57:44;3.13;;;1.90;;
11427;SDS011;5770;44.504;11.346;2023-04-16T10:00:17;1.92;;;1.42;;
11427;SDS011;5770;44.504;11.346;2023-04-16T10:02:44;3.25;;;1.60;;
11427;SDS011;5770;44.504;11.346;2023-04-16T10:05:13;1.80;;;1.70;;
11427;SDS011;5770;44.504;11.346;2023-04-16T10:07:44;1.42;;;1.33;;
11427;SDS011;5770;44.504;11.346;2023-04-16T10:10:13;2.55;;;1.75;;
11427;SDS011;5770;44.504;11.346;2023-04-16T10:12:40;1.60;;;1.50;;
11427;SDS011;5770;44.504;11.346;2023-04-16T10:15:09;2.95;;;1.65;;
11427;SDS011;5770;44.504;11.346;2023-04-16T10:17:36;1.98;;;1.63;;
11427;SDS011;5770;44.504;11.346;2023-04-16T10:20:04;2.97;;;2.58;;
11427;SDS011;5770;44.504;11.346;2023-04-16T10:22:33;2.00;;;1.80;;
11427;SDS011;5770;44.504;11.346;2023-04-16T10:25:00;3.17;;;2.13;;
11427;SDS011;5770;44.504;11.346;2023-04-16T10:27:28;2.70;;;1.85;;
11427;SDS011;5770;44.504;11.346;2023-04-16T10:29:55;2.50;;;1.58;;
11427;SDS011;5770;44.504;11.346;2023-04-16T10:32:24;3.22;;;2.10;;
11427;SDS011;5770;44.504;11.346;2023-04-16T10:34:52;3.25;;;2.92;;
11427;SDS011;5770;44.504;11.346;2023-04-16T10:37:27;1.90;;;1.80;;
11427;SDS011;5770;44.504;11.346;2023-04-16T10:39:55;3.17;;;2.03;;
11427;SDS011;5770;44.504;11.346;2023-04-16T10:42:24;3.22;;;1.55;;
11427;SDS011;5770;44.504;11.346;2023-04-16T10:44:51;4.68;;;1.80;;
11427;SDS011;5770;44.504;11.346;2023-04-16T10:47:19;5.50;;;3.30;;
11427;SDS011;5770;44.504;11.346;2023-04-16T10:49:51;2.70;;;1.80;;
11427;SDS011;5770;44.504;11.346;2023-04-16T10:52:19;2.08;;;1.40;;
11427;SDS011;5770;44.504;11.346;2023-04-16T10:54:48;4.57;;;1.48;;
11427;SDS011;5770;44.504;11.346;2023-04-16T10:57:19;2.45;;;1.40;;
11427;SDS011;5770;44.504;11.346;2023-04-16T10:59:47;41.53;;;4.00;;
11427;SDS011;5770;44.504;11.346;2023-04-16T11:02:15;4.63;;;1.50;;
11427;SDS011;5770;44.504;11.346;2023-04-16T11:04:44;1.73;;;1.55;;
11427;SDS011;5770;44.504;11.346;2023-04-16T11:07:13;3.47;;;1.50;;
11427;SDS011;5770;44.504;11.346;2023-04-16T11:09:43;2.10;;;1.50;;
11427;SDS011;5770;44.504;11.346;2023-04-16T11:12:11;1.88;;;1.35;;
11427;SDS011;5770;44.504;11.346;2023-04-16T11:14:40;4.20;;;1.23;;
11427;SDS011;5770;44.504;11.346;2023-04-16T11:17:07;1.75;;;1.10;;
11427;SDS011;5770;44.504;11.346;2023-04-16T11:19:37;2.50;;;1.70;;
11427;SDS011;5770;44.504;11.346;2023-04-16T11:22:08;2.13;;;1.30;;
11427;SDS011;5770;44.504;11.346;2023-04-16T11:24:36;2.42;;;1.48;;
11427;SDS011;5770;44.504;11.346;2023-04-16T11:27:05;2.35;;;1.35;;
11427;SDS011;5770;44.504;11.346;2023-04-16T11:29:35;1.17;;;0.90;;
11427;SDS011;5770;44.504;11.346;2023-04-16T11:32:02;0.82;;;0.75;;
11427;SDS011;5770;44.504;11.346;2023-04-16T11:34:30;1.13;;;1.02;;
11427;SDS011;5770;44.504;11.346;2023-04-16T11:36:57;1.77;;;1.50;;
11427;SDS011;5770;44.504;11.346;2023-04-16T11:39:26;3.55;;;2.13;;
11427;SDS011;5770;44.504;11.346;2023-04-16T11:41:53;1.10;;;1.00;;
11427;SDS011;5770;44.504;11.346;2023-04-16T11:44:20;0.77;;;0.77;;
11427;SDS011;5770;44.504;11.346;2023-04-16T11:46:49;2.80;;;1.10;;
11427;SDS011;5770;44.504;11.346;2023-04-16T11:49:16;1.13;;;1.05;;
11427;SDS011;5770;44.504;11.346;2023-04-16T11:51:52;1.63;;;1.13;;
11427;SDS011;5770;44.504;11.346;2023-04-16T11:54:19;0.98;;;0.77;;
11427;SDS011;5770;44.504;11.346;2023-04-16T11:56:55;1.98;;;1.10;;
11427;SDS011;5770;44.504;11.346;2023-04-16T11:59:26;1.58;;;1.00;;
11427;SDS011;5770;44.504;11.346;2023-04-16T12:01:53;1.77;;;0.93;;
11427;SDS011;5770;44.504;11.346;2023-04-16T12:04:21;1.02;;;0.80;;
11427;SDS011;5770;44.504;11.346;2023-04-16T12:07:05;1.10;;;0.90;;
11427;SDS011;5770;44.504;11.346;2023-04-16T12:09:33;1.33;;;0.85;;
11427;SDS011;5770;44.504;11.346;2023-04-16T12:12:02;1.02;;;0.80;;
11427;SDS011;5770;44.504;11.346;2023-04-16T12:14:30;2.05;;;1.13;;
11427;SDS011;5770;44.504;11.346;2023-04-16T12:19:47;3.25;;;1.10;;
11427;SDS011;5770;44.504;11.346;2023-04-16T12:22:14;2.13;;;0.77;;
11427;SDS011;5770;44.504;11.346;2023-04-16T12:24:45;0.93;;;0.88;;
11427;SDS011;5770;44.504;11.346;2023-04-16T12:27:13;1.02;;;0.90;;
11427;SDS011;5770;44.504;11.346;2023-04-16T12:29:41;2.33;;;1.10;;
11427;SDS011;5770;44.504;11.346;2023-04-16T12:32:19;2.72;;;0.93;;
11427;SDS011;5770;44.504;11.346;2023-04-16T12:34:50;1.13;;;1.02;;
11427;SDS011;5770;44.504;11.346;2023-04-16T12:37:17;0.90;;;0.90;;
11427;SDS011;5770;44.504;11.346;2023-04-16T12:39:46;0.70;;;0.70;;
11427;SDS011;5770;44.504;11.346;2023-04-16T12:42:15;2.15;;;1.10;;
11427;SDS011;5770;44.504;11.346;2023-04-16T12:44:42;1.58;;;1.05;;
11427;SDS011;5770;44.504;11.346;2023-04-16T12:47:10;3.45;;;1.52;;
11427;SDS011;5770;44.504;11.346;2023-04-16T12:49:37;0.90;;;0.90;;
11427;SDS011;5770;44.504;11.346;2023-04-16T12:52:05;2.90;;;1.10;;
11427;SDS011;5770;44.504;11.346;2023-04-16T12:54:32;2.45;;;1.05;;
11427;SDS011;5770;44.504;11.346;2023-04-16T12:56:59;0.90;;;0.90;;
11427;SDS011;5770;44.504;11.346;2023-04-16T12:59:29;1.08;;;0.95;;
11427;SDS011;5770;44.504;11.346;2023-04-16T13:01:56;1.02;;;0.98;;
11427;SDS011;5770;44.504;11.346;2023-04-16T13:04:23;1.38;;;0.90;;
11427;SDS011;5770;44.504;11.346;2023-04-16T13:06:50;0.88;;;0.88;;
11427;SDS011;5770;44.504;11.346;2023-04-16T13:09:18;0.73;;;0.73;;
11427;SDS011;5770;44.504;11.346;2023-04-16T13:11:45;0.70;;;0.70;;
11427;SDS011;5770;44.504;11.346;2023-04-16T13:14:12;0.70;;;0.70;;
11427;SDS011;5770;44.504;11.346;2023-04-16T13:16:43;1.85;;;0.80;;
11427;SDS011;5770;44.504;11.346;2023-04-16T13:19:10;1.70;;;0.90;;
11427;SDS011;5770;44.504;11.346;2023-04-16T13:21:39;0.88;;;0.80;;
11427;SDS011;5770;44.504;11.346;2023-04-16T13:24:07;1.02;;;0.88;;
11427;SDS011;5770;44.504;11.346;2023-04-16T13:26:34;0.90;;;0.90;;
11427;SDS011;5770;44.504;11.346;2023-04-16T13:29:01;1.98;;;1.13;;
11427;SDS011;5770;44.504;11.346;2023-04-16T13:31:28;2.28;;;0.90;;
11427;SDS011;5770;44.504;11.346;2023-04-16T13:33:57;1.67;;;0.90;;
11427;SDS011;5770;44.504;11.346;2023-04-16T13:36:24;0.85;;;0.85;;
11427;SDS011;5770;44.504;11.346;2023-04-16T13:38:51;1.33;;;0.80;;
11427;SDS011;5770;44.504;11.346;2023-04-16T13:41:18;2.13;;;0.80;;
11427;SDS011;5770;44.504;11.346;2023-04-16T13:43:45;1.02;;;1.00;;
11427;SDS011;5770;44.504;11.346;2023-04-16T13:46:12;1.48;;;1.38;;
11427;SDS011;5770;44.504;11.346;2023-04-16T13:48:39;2.97;;;1.13;;
11427;SDS011;5770;44.504;11.346;2023-04-16T13:51:08;0.90;;;0.85;;
11427;SDS011;5770;44.504;11.346;2023-04-16T13:53:36;1.70;;;0.82;;
11427;SDS011;5770;44.504;11.346;2023-04-16T13:56:03;1.45;;;1.10;;
11427;SDS011;5770;44.504;11.346;2023-04-16T13:58:31;2.55;;;1.00;;
11427;SDS011;5770;44.504;11.346;2023-04-16T14:00:58;2.33;;;1.05;;
11427;SDS011;5770;44.504;11.346;2023-04-16T14:03:25;1.15;;;1.05;;
11427;SDS011;5770;44.504;11.346;2023-04-16T14:05:52;2.67;;;1.45;;
11427;SDS011;5770;44.504;11.346;2023-04-16T14:08:22;3.40;;;1.70;;
11427;SDS011;5770;44.504;11.346;2023-04-16T14:10:49;0.93;;;0.70;;
11427;SDS011;5770;44.504;11.346;2023-04-16T14:13:16;4.22;;;1.00;;
11427;SDS011;5770;44.504;11.346;2023-04-16T14:15:43;0.80;;;0.80;;
11427;SDS011;5770;44.504;11.346;2023-04-16T14:18:11;1.23;;;0.80;;
11427;SDS011;5770;44.504;11.346;2023-04-16T14:20:41;1.95;;;1.05;;
11427;SDS011;5770;44.504;11.346;2023-04-16T14:23:08;2.58;;;1.60;;
11427;SDS011;5770;44.504;11.346;2023-04-16T14:25:37;1.83;;;1.00;;
11427;SDS011;5770;44.504;11.346;2023-04-16T14:28:04;0.80;;;0.80;;
11427;SDS011;5770;44.504;11.346;2023-04-16T14:30:33;1.70;;;0.90;;
11427;SDS011;5770;44.504;11.346;2023-04-16T14:33:00;1.02;;;0.90;;
11427;SDS011;5770;44.504;11.346;2023-04-16T14:35:27;3.75;;;1.15;;
11427;SDS011;5770;44.504;11.346;2023-04-16T14:37:54;1.70;;;1.50;;
11427;SDS011;5770;44.504;11.346;2023-04-16T14:40:22;1.30;;;1.00;;
11427;SDS011;5770;44.504;11.346;2023-04-16T14:42:50;1.63;;;1.52;;
11427;SDS011;5770;44.504;11.346;2023-04-16T14:45:17;6.47;;;2.72;;
11427;SDS011;5770;44.504;11.346;2023-04-16T14:47:45;1.75;;;1.50;;
11427;SDS011;5770;44.504;11.346;2023-04-16T14:50:12;1.52;;;0.82;;
11427;SDS011;5770;44.504;11.346;2023-04-16T14:52:40;2.47;;;1.10;;
11427;SDS011;5770;44.504;11.346;2023-04-16T14:55:07;1.10;;;0.90;;